createdAt,value
2022-09-12T00:03:00.941Z,8.20
2022-09-12T00:08:04.970Z,8.00
2022-09-12T00:13:08.966Z,11.50
2022-09-12T00:18:17.445Z,8.60
2022-09-12T00:23:21.260Z,6.40
2022-09-12T00:28:24.273Z,9.20
2022-09-12T00:33:27.171Z,11.10
2022-09-12T00:38:30.075Z,9.00
2022-09-12T00:43:48.646Z,8.80
2022-09-12T00:49:13.600Z,7.10
2022-09-12T00:54:22.389Z,6.90
2022-09-12T00:59:53.678Z,9.30
2022-09-12T01:04:56.786Z,6.70
2022-09-12T01:09:59.895Z,6.20
2022-09-12T01:15:02.674Z,8.80
2022-09-12T01:20:34.786Z,7.30
2022-09-12T01:25:46.393Z,7.00
2022-09-12T01:31:13.363Z,7.60
2022-09-12T01:36:51.088Z,8.10
2022-09-12T01:42:21.113Z,13.90
2022-09-12T01:47:24.335Z,8.50
2022-09-12T01:52:41.577Z,8.90
2022-09-12T01:57:51.747Z,9.50
2022-09-12T02:03:10.533Z,8.50
2022-09-12T02:08:23.153Z,9.20
2022-09-12T02:13:42.647Z,7.20
2022-09-12T02:18:52.524Z,9.40
2022-09-12T02:23:59.825Z,8.70
2022-09-12T02:29:04.578Z,8.30
2022-09-12T02:34:49.666Z,9.30
2022-09-12T02:39:55.417Z,11.60
2022-09-12T02:44:58.505Z,9.20
2022-09-12T02:50:02.020Z,7.30
2022-09-12T02:55:05.927Z,6.20
2022-09-12T03:00:09.650Z,8.90
2022-09-12T03:05:27.208Z,11.10
2022-09-12T03:10:33.236Z,7.20
2022-09-12T03:15:45.048Z,9.10
2022-09-12T03:21:01.366Z,9.60
2022-09-12T03:26:16.046Z,9.20
2022-09-12T03:31:20.193Z,7.00
2022-09-12T03:36:26.257Z,8.60
2022-09-12T03:41:29.062Z,7.00
2022-09-12T03:46:32.279Z,10.20
2022-09-12T03:51:35.378Z,7.00
2022-09-12T03:56:41.764Z,7.90
2022-09-12T04:01:44.567Z,8.10
2022-09-12T04:06:47.471Z,8.70
2022-09-12T04:11:50.275Z,8.90
2022-09-12T04:16:53.232Z,8.80
2022-09-12T04:21:56.186Z,7.20
2022-09-12T04:26:59.407Z,5.90
2022-09-12T04:32:03.938Z,7.20
2022-09-12T04:37:06.848Z,9.50
2022-09-12T04:42:12.614Z,8.30
2022-09-12T04:47:15.512Z,7.10
2022-09-12T04:52:18.362Z,7.20
2022-09-12T04:57:21.221Z,7.90
2022-09-12T05:02:24.014Z,6.40
2022-09-12T05:07:26.820Z,6.90
2022-09-12T05:12:31.325Z,6.40
2022-09-12T05:17:34.112Z,9.00
2022-09-12T05:22:36.966Z,12.20
2022-09-12T05:27:39.869Z,8.00
2022-09-12T05:32:42.675Z,5.40
2022-09-12T05:37:45.617Z,7.30
2022-09-12T05:42:48.587Z,8.70
2022-09-12T05:47:51.498Z,5.40
2022-09-12T05:52:56.279Z,11.40
2022-09-12T05:58:02.113Z,7.50
2022-09-12T06:03:05.572Z,8.00
2022-09-12T06:08:08.425Z,7.50
2022-09-12T06:13:11.346Z,7.60
2022-09-12T06:18:17.203Z,6.20
2022-09-12T06:23:20.109Z,7.20
2022-09-12T06:28:26.600Z,8.50
2022-09-12T06:33:29.608Z,5.70
2022-09-12T06:38:33.468Z,7.80
2022-09-12T06:43:37.019Z,5.20
2022-09-12T06:48:42.132Z,6.00
2022-09-12T06:53:46.856Z,4.80
2022-09-12T06:58:51.354Z,6.30
2022-09-12T07:03:56.634Z,6.10
2022-09-12T07:09:01.515Z,5.40
2022-09-12T07:14:06.497Z,5.50
2022-09-12T07:19:10.394Z,5.50
2022-09-12T07:24:13.291Z,5.30
2022-09-12T07:34:41.107Z,3.90
2022-09-12T07:39:44.259Z,4.40
2022-09-12T07:44:47.429Z,4.40
2022-09-12T07:49:50.334Z,3.80
2022-09-12T07:54:53.545Z,5.30
2022-09-12T07:59:56.656Z,3.80
2022-09-12T08:04:59.555Z,4.10
2022-09-12T08:10:02.679Z,6.60
2022-09-12T08:15:08.946Z,3.90
2022-09-12T08:20:12.688Z,3.10
2022-09-12T08:25:15.675Z,6.20
2022-09-12T08:30:18.578Z,4.80
2022-09-12T08:35:21.588Z,4.40
2022-09-12T08:40:24.710Z,4.40
2022-09-12T08:45:46.818Z,4.80
2022-09-12T08:50:52.722Z,3.80
2022-09-12T08:56:00.543Z,6.10
2022-09-12T09:01:24.557Z,3.50
2022-09-12T09:06:49.051Z,7.10
2022-09-12T09:12:07.625Z,5.10
2022-09-12T09:17:20.561Z,7.10
2022-09-12T09:22:55.424Z,5.70
2022-09-12T09:28:02.367Z,4.50
2022-09-12T09:33:11.538Z,3.90
2022-09-12T09:38:23.480Z,4.70
2022-09-12T09:43:29.929Z,4.00
2022-09-12T09:48:36.292Z,4.30
2022-09-12T09:53:48.679Z,4.90
2022-09-12T09:58:51.584Z,5.00
2022-09-12T10:03:58.938Z,3.70
2022-09-12T10:09:22.306Z,3.60
2022-09-12T10:14:30.811Z,4.90
2022-09-12T10:19:38.961Z,4.50
2022-09-12T10:24:47.054Z,4.90
2022-09-12T10:30:17.976Z,5.40
2022-09-12T10:35:22.798Z,4.40
2022-09-12T10:40:46.059Z,4.30
2022-09-12T10:45:48.958Z,5.80
2022-09-12T10:50:52.478Z,6.10
2022-09-12T10:56:07.463Z,3.70
2022-09-12T11:01:32.879Z,4.10
2022-09-12T11:06:44.816Z,3.30
2022-09-12T11:12:09.733Z,4.60
2022-09-12T11:17:15.500Z,6.30
2022-09-12T11:22:47.080Z,3.90
2022-09-12T11:28:16.304Z,5.20
2022-09-12T11:33:19.306Z,3.30
2022-09-12T11:38:35.538Z,3.00
2022-09-12T11:43:58.001Z,3.20
2022-09-12T11:49:09.909Z,6.80
2022-09-12T11:54:18.641Z,5.10
2022-09-12T12:00:03.029Z,3.40
2022-09-12T12:05:20.571Z,7.10
2022-09-12T12:10:34.218Z,4.50
2022-09-12T12:15:39.421Z,3.60
2022-09-12T12:20:42.897Z,4.30
2022-09-12T12:25:55.526Z,3.70
2022-09-12T12:31:01.337Z,4.40
2022-09-12T12:36:30.321Z,4.10
2022-09-12T12:41:35.984Z,2.60
2022-09-12T12:46:39.241Z,4.00
2022-09-12T12:51:54.077Z,4.40
2022-09-12T12:57:02.660Z,6.00
2022-09-12T13:02:05.672Z,5.10
2022-09-12T13:07:12.069Z,4.80
2022-09-12T13:12:44.094Z,3.10
2022-09-12T13:17:47.461Z,3.80
2022-09-12T13:22:52.140Z,4.30
2022-09-12T13:28:06.432Z,2.90
2022-09-12T13:33:14.550Z,4.60
2022-09-12T13:38:30.264Z,2.80
2022-09-12T13:43:43.442Z,4.30
2022-09-12T13:48:46.913Z,3.60
2022-09-12T13:53:52.429Z,2.30
2022-09-12T13:58:56.940Z,4.10
2022-09-12T14:04:19.088Z,4.40
2022-09-12T14:09:25.465Z,4.50
2022-09-12T14:14:37.019Z,4.30
2022-09-12T14:19:40.078Z,5.00
2022-09-12T14:24:43.739Z,3.90
2022-09-12T14:29:47.627Z,6.70
2022-09-12T14:35:05.687Z,3.80
2022-09-12T14:40:24.487Z,4.60
2022-09-12T14:45:30.440Z,4.90
2022-09-12T14:50:35.854Z,2.60
2022-09-12T14:55:50.539Z,3.40
2022-09-12T15:01:03.938Z,3.30
2022-09-12T15:06:23.335Z,5.00
2022-09-12T15:11:26.436Z,5.70
2022-09-12T15:16:29.337Z,5.80
2022-09-12T15:21:32.444Z,4.80
2022-09-12T15:26:35.355Z,7.20
2022-09-12T15:31:40.573Z,10.30
2022-09-12T15:36:43.428Z,5.60
2022-09-12T15:41:48.203Z,3.10
2022-09-12T15:46:51.276Z,4.40
2022-09-12T15:51:54.080Z,4.30
2022-09-12T15:56:57.072Z,3.70
2022-09-12T16:02:00.322Z,4.90
2022-09-12T16:07:03.304Z,3.00
2022-09-12T16:12:06.672Z,5.10
2022-09-12T16:17:10.406Z,2.60
2022-09-12T16:22:13.335Z,7.90
2022-09-12T16:27:17.877Z,3.70
2022-09-12T16:32:21.193Z,3.60
2022-09-12T16:37:24.275Z,5.90
2022-09-12T16:42:27.405Z,2.90
2022-09-12T16:47:32.459Z,4.40
2022-09-12T16:52:35.775Z,6.80
2022-09-12T16:57:38.987Z,7.70
2022-09-12T17:02:41.917Z,5.80
2022-09-12T17:07:48.184Z,4.30
2022-09-12T17:12:53.554Z,5.60
2022-09-12T17:17:58.251Z,16.40
2022-09-12T17:23:01.187Z,25.30
2022-09-12T17:28:07.777Z,13.70
2022-09-12T17:33:11.214Z,6.20
2022-09-12T17:38:19.345Z,7.50
2022-09-12T17:43:24.937Z,10.60
2022-09-12T17:48:30.838Z,7.80
2022-09-12T17:53:34.787Z,6.80
2022-09-12T17:58:38.512Z,8.00
2022-09-12T18:03:41.414Z,8.30
2022-09-12T18:08:44.318Z,10.50
2022-09-12T18:13:50.652Z,13.60
2022-09-12T18:18:54.263Z,11.10
2022-09-12T18:23:59.386Z,15.30
2022-09-12T18:29:02.284Z,16.40
2022-09-12T18:34:06.420Z,14.40
2022-09-12T18:39:09.781Z,11.00
2022-09-12T18:44:13.582Z,10.20
2022-09-12T18:49:16.775Z,13.10
2022-09-12T18:54:20.594Z,14.90
2022-09-12T18:59:24.420Z,12.70
2022-09-12T19:04:27.893Z,10.80
2022-09-12T19:09:30.953Z,9.70
2022-09-12T19:14:33.951Z,10.10
2022-09-12T19:19:40.467Z,10.80
2022-09-12T19:24:43.750Z,9.30
2022-09-12T19:29:46.860Z,11.70
2022-09-12T19:34:50.287Z,10.30
2022-09-12T19:39:53.137Z,12.20
2022-09-12T19:44:56.194Z,12.90
2022-09-12T19:49:59.208Z,13.20
2022-09-12T19:55:02.306Z,12.40
2022-09-12T20:00:07.037Z,13.90
2022-09-12T20:05:10.106Z,14.70
2022-09-12T20:10:14.394Z,17.10
2022-09-12T20:15:17.867Z,14.60
2022-09-12T20:20:20.717Z,18.10
2022-09-12T20:25:23.616Z,27.90
2022-09-12T20:30:26.724Z,13.40
2022-09-12T20:35:29.569Z,14.30
2022-09-12T20:40:32.532Z,14.50
2022-09-12T20:45:41.687Z,16.00
2022-09-12T20:50:44.589Z,18.80
2022-09-12T20:55:52.194Z,22.10
2022-09-12T21:00:55.119Z,17.20
2022-09-12T21:05:58.018Z,16.00
2022-09-12T21:11:01.427Z,14.50
2022-09-12T21:16:10.634Z,14.90
2022-09-12T21:21:15.824Z,16.90
2022-09-12T21:26:18.841Z,12.80
2022-09-12T21:31:22.001Z,17.90
2022-09-12T21:36:25.373Z,17.60
2022-09-12T21:41:29.090Z,16.90
2022-09-12T21:46:31.949Z,18.20
2022-09-12T21:51:34.897Z,14.30
2022-09-12T21:56:37.901Z,10.50
2022-09-12T22:01:40.740Z,14.50
2022-09-12T22:06:43.814Z,18.40
2022-09-12T22:11:47.128Z,10.70
2022-09-12T22:16:50.132Z,11.40
2022-09-12T22:22:14.130Z,13.20
2022-09-12T22:27:17.403Z,17.50
2022-09-12T22:32:20.353Z,14.30
2022-09-12T22:37:23.150Z,12.60
2022-09-12T22:42:26.747Z,14.10
2022-09-12T22:47:29.674Z,11.40
2022-09-12T22:52:32.475Z,10.80
2022-09-12T22:57:36.443Z,12.30
2022-09-12T23:02:39.426Z,17.70
2022-09-12T23:07:42.317Z,17.20
2022-09-12T23:12:45.238Z,18.00
2022-09-12T23:17:48.604Z,18.80
2022-09-12T23:22:51.746Z,15.30
2022-09-12T23:27:54.584Z,14.00
2022-09-12T23:32:57.447Z,13.40
2022-09-12T23:38:00.555Z,11.50
2022-09-12T23:43:06.533Z,11.40
2022-09-12T23:48:09.946Z,16.80
2022-09-12T23:53:13.977Z,15.60
2022-09-12T23:58:17.292Z,13.30
